Time;durP1;ratioP1;P1;durP2;ratioP2;P2;SDS_P1;SDS_P2;PMS_P1;PMS_P2;Temp;Humidity;BMP_temperature;BMP_pressure;BME280_temperature;BME280_humidity;BME280_pressure;Samples;Min_cycle;Max_cycle;Signal;HPM_P1;HPM_P2
2021/03/07 00:00:09;;;;;;;14.32;9.20;;;0.60;98.80;;;;;;5050727;28;20665;-71
2021/03/07 00:02:54;;;;;;;15.20;9.90;;;0.70;98.20;;;;;;5047458;28;20252;-70
2021/03/07 00:05:39;;;;;;;15.82;9.35;;;0.70;97.60;;;;;;5044426;28;20200;-71
2021/03/07 00:08:24;;;;;;;16.08;10.02;;;0.70;97.90;;;;;;5049322;28;20221;-71
2021/03/07 00:11:10;;;;;;;10.85;8.15;;;0.60;98.30;;;;;;5049786;28;20240;-71
2021/03/07 00:13:55;;;;;;;12.45;8.52;;;0.50;98.50;;;;;;5050849;28;20208;-69
2021/03/07 00:16:40;;;;;;;15.25;10.00;;;0.40;99.60;;;;;;5049702;28;20255;-72
2021/03/07 00:19:25;;;;;;;11.63;7.85;;;0.40;99.90;;;;;;5044132;28;20211;-71
2021/03/07 00:22:10;;;;;;;13.50;8.25;;;0.50;99.50;;;;;;5048974;28;20212;-72
2021/03/07 00:24:56;;;;;;;14.45;9.02;;;0.30;99.90;;;;;;5046084;28;20566;-71
2021/03/07 00:27:42;;;;;;;13.05;8.70;;;0.40;99.70;;;;;;5045494;28;20329;-71
2021/03/07 00:30:27;;;;;;;10.55;7.50;;;0.30;99.80;;;;;;5046542;28;20247;-69
2021/03/07 00:33:12;;;;;;;10.60;7.03;;;0.30;99.90;;;;;;5048876;28;20224;-71
2021/03/07 00:35:57;;;;;;;16.00;8.23;;;0.20;99.90;;;;;;5048177;28;20224;-70
2021/03/07 00:38:42;;;;;;;12.23;8.32;;;0.30;99.90;;;;;;5046791;28;20286;-72
2021/03/07 00:41:27;;;;;;;13.05;7.88;;;0.20;99.90;;;;;;5045779;28;20270;-71
2021/03/07 00:44:13;;;;;;;11.85;7.43;;;0.20;99.90;;;;;;5047967;28;20293;-70
2021/03/07 00:46:59;;;;;;;14.70;8.13;;;0.20;99.90;;;;;;5048006;28;20344;-71
2021/03/07 00:49:44;;;;;;;10.50;7.38;;;0.10;99.90;;;;;;5053739;28;20271;-70
2021/03/07 00:52:29;;;;;;;9.70;7.25;;;0.00;99.90;;;;;;5048780;28;20213;-71
2021/03/07 00:55:14;;;;;;;9.88;7.70;;;0.00;99.90;;;;;;5050387;28;20209;-72
2021/03/07 00:57:59;;;;;;;13.05;6.97;;;0.00;99.90;;;;;;5055314;28;20294;-69
2021/03/07 01:00:46;;;;;;;7.95;6.10;;;0.00;99.90;;;;;;5048219;28;20723;-71
2021/03/07 01:03:31;;;;;;;9.23;6.50;;;0.00;99.90;;;;;;5041306;28;20216;-71
2021/03/07 01:06:17;;;;;;;10.02;5.60;;;0.00;99.90;;;;;;5048083;28;20237;-71
2021/03/07 01:09:02;;;;;;;10.00;6.30;;;-0.20;99.90;;;;;;5047902;28;20228;-69
2021/03/07 01:11:47;;;;;;;10.13;6.70;;;-0.10;99.90;;;;;;5047244;28;20205;-72
2021/03/07 01:14:33;;;;;;;16.10;6.45;;;-0.20;99.90;;;;;;5046984;28;20250;-68
2021/03/07 01:17:19;;;;;;;10.93;6.00;;;-0.20;99.90;;;;;;5050528;28;20290;-71
2021/03/07 01:20:09;;;;;;;8.73;5.53;;;-0.30;99.90;;;;;;5056870;28;20243;-70
2021/03/07 01:22:54;;;;;;;10.57;5.80;;;-0.30;99.90;;;;;;5053286;28;20201;-70
2021/03/07 01:25:39;;;;;;;8.25;5.38;;;-0.30;99.90;;;;;;5046777;28;20208;-68
2021/03/07 01:28:24;;;;;;;7.65;5.70;;;-0.10;99.90;;;;;;5048595;28;20208;-72
2021/03/07 01:31:09;;;;;;;7.90;5.13;;;0.00;99.90;;;;;;5051783;28;20223;-70
2021/03/07 01:33:56;;;;;;;10.05;5.80;;;-0.10;99.90;;;;;;5049345;28;20240;-72
2021/03/07 01:36:41;;;;;;;7.57;5.95;;;-0.10;99.90;;;;;;5048642;28;20228;-71
2021/03/07 01:39:26;;;;;;;9.50;6.60;;;-0.10;99.90;;;;;;5046447;28;20736;-71
2021/03/07 01:42:12;;;;;;;8.25;5.85;;;-0.10;99.90;;;;;;5048346;28;20220;-71
2021/03/07 01:44:57;;;;;;;7.97;5.70;;;-0.10;99.90;;;;;;5049481;28;20650;-72
2021/03/07 02:09:50;;;;;;;8.23;5.70;;;-0.20;99.90;;;;;;5044320;28;20212;-71
2021/03/07 02:12:37;;;;;;;8.70;6.18;;;-0.30;99.90;;;;;;5049845;28;20259;-71
2021/03/07 02:30:38;;;;;;;13.05;7.05;;;-0.60;99.90;;;;;;5048755;28;20235;-71
2021/03/07 02:33:27;;;;;;;11.07;7.25;;;-0.70;99.90;;;;;;5042931;28;20421;-71
2021/03/07 02:36:19;;;;;;;8.32;6.13;;;-0.60;99.90;;;;;;5050335;28;20264;-71
2021/03/07 02:39:06;;;;;;;8.35;6.78;;;-0.40;99.90;;;;;;5044515;28;20621;-71
2021/03/07 02:41:54;;;;;;;8.57;6.38;;;-0.50;99.90;;;;;;5043537;28;20235;-72
2021/03/07 02:44:43;;;;;;;8.15;5.97;;;-0.40;99.90;;;;;;5045382;28;20208;-71
2021/03/07 02:47:32;;;;;;;8.60;6.38;;;-0.30;99.90;;;;;;5043925;28;20252;-71
2021/03/07 02:50:21;;;;;;;8.27;5.70;;;-0.40;99.90;;;;;;5045168;28;20197;-72
2021/03/07 02:53:09;;;;;;;8.20;5.88;;;-0.70;99.90;;;;;;5043469;28;20197;-72
2021/03/07 02:55:58;;;;;;;8.32;5.85;;;-0.60;99.90;;;;;;5043195;28;20279;-71
2021/03/07 02:58:46;;;;;;;8.65;5.15;;;-0.80;99.90;;;;;;5044995;28;20213;-69
2021/03/07 03:01:33;;;;;;;9.07;5.57;;;-0.80;99.90;;;;;;5041280;28;20259;-71
2021/03/07 03:04:21;;;;;;;8.68;6.15;;;-0.80;99.90;;;;;;5041333;28;20678;-71
2021/03/07 03:07:08;;;;;;;10.75;6.07;;;-0.70;99.90;;;;;;5046272;28;20282;-70
2021/03/07 03:09:56;;;;;;;9.68;6.05;;;-0.60;99.90;;;;;;5049502;28;20499;-71
2021/03/07 03:12:44;;;;;;;11.73;5.60;;;-0.60;99.90;;;;;;5046414;28;20216;-72
2021/03/07 03:15:30;;;;;;;8.55;6.03;;;-0.70;99.90;;;;;;5048688;28;20204;-71
2021/03/07 03:18:17;;;;;;;8.25;5.68;;;-0.70;99.90;;;;;;5043977;28;20255;-71
2021/03/07 03:21:06;;;;;;;8.45;5.90;;;-0.90;99.90;;;;;;5049819;28;20740;-72
2021/03/07 03:23:51;;;;;;;9.45;5.22;;;-0.90;99.90;;;;;;5055772;28;20236;-71
2021/03/07 03:26:36;;;;;;;7.88;5.40;;;-0.90;99.90;;;;;;5051444;28;20311;-72
2021/03/07 03:29:21;;;;;;;10.32;5.57;;;-0.70;99.90;;;;;;5050319;28;20280;-70
2021/03/07 03:32:06;;;;;;;7.47;5.20;;;-0.70;99.90;;;;;;5054275;28;20310;-72
2021/03/07 03:34:51;;;;;;;8.20;5.40;;;-0.80;99.90;;;;;;5047449;28;20208;-71
2021/03/07 03:37:38;;;;;;;9.75;5.97;;;-0.90;99.90;;;;;;5046851;28;20244;-71
2021/03/07 03:40:25;;;;;;;8.02;5.97;;;-1.00;99.90;;;;;;5050097;28;20221;-71
2021/03/07 03:43:11;;;;;;;7.00;5.07;;;-1.10;99.90;;;;;;5048574;28;20293;-71
2021/03/07 03:46:01;;;;;;;8.45;5.80;;;-1.20;99.90;;;;;;5048655;28;20221;-71
2021/03/07 03:48:53;;;;;;;7.35;5.65;;;-1.30;99.90;;;;;;5049026;28;20690;-69
2021/03/07 03:51:40;;;;;;;10.98;6.72;;;-1.10;99.90;;;;;;5048973;28;20244;-71
2021/03/07 03:54:29;;;;;;;9.23;5.38;;;-1.20;99.90;;;;;;5047736;28;20855;-71
2021/03/07 03:57:17;;;;;;;7.60;5.60;;;-1.10;99.90;;;;;;5045017;28;20224;-72
2021/03/07 04:00:07;;;;;;;11.07;5.53;;;-1.20;99.90;;;;;;5048226;28;20228;-70
2021/03/07 04:02:56;;;;;;;8.57;6.20;;;-1.00;99.90;;;;;;5048161;28;20205;-72
2021/03/07 04:05:45;;;;;;;10.48;6.13;;;-1.10;99.90;;;;;;5045827;28;20288;-71
2021/03/07 04:08:30;;;;;;;12.88;6.55;;;-1.00;99.90;;;;;;5048068;28;20259;-69
2021/03/07 04:11:17;;;;;;;9.65;6.40;;;-1.10;99.90;;;;;;5043268;28;20333;-70
2021/03/07 04:14:02;;;;;;;9.90;7.25;;;-1.20;99.90;;;;;;5051450;28;20197;-71
2021/03/07 04:16:48;;;;;;;11.52;6.30;;;-1.40;99.90;;;;;;5045921;28;20351;-71
2021/03/07 04:19:35;;;;;;;12.48;7.20;;;-1.40;99.90;;;;;;5046238;28;20212;-71
2021/03/07 04:22:21;;;;;;;10.02;6.82;;;-1.60;99.90;;;;;;5053573;28;20619;-71
2021/03/07 04:25:09;;;;;;;9.52;6.80;;;-1.60;99.90;;;;;;5046808;28;20285;-70
2021/03/07 04:27:55;;;;;;;11.05;6.82;;;-1.60;99.90;;;;;;5049069;28;20228;-71
2021/03/07 04:30:42;;;;;;;10.52;7.20;;;-1.30;99.90;;;;;;5048601;28;20296;-71
2021/03/07 04:33:27;;;;;;;10.52;6.82;;;-1.10;99.90;;;;;;5048676;28;20336;-71
2021/03/07 04:36:12;;;;;;;8.73;6.00;;;-1.10;99.90;;;;;;5047669;28;20236;-71
2021/03/07 04:38:58;;;;;;;9.93;5.82;;;-1.00;99.90;;;;;;5045779;28;20281;-71
2021/03/07 04:41:43;;;;;;;7.78;5.95;;;-1.20;99.90;;;;;;5047719;28;20267;-72
2021/03/07 04:44:29;;;;;;;6.53;5.32;;;-1.10;99.90;;;;;;5047068;28;20216;-71
2021/03/07 04:47:15;;;;;;;8.55;5.88;;;-1.00;99.90;;;;;;5043125;28;20224;-71
2021/03/07 04:50:00;;;;;;;10.05;6.15;;;-0.80;99.90;;;;;;5049226;28;20255;-72
2021/03/07 04:52:45;;;;;;;11.25;6.20;;;-0.80;99.90;;;;;;5048208;28;20252;-70
2021/03/07 04:55:30;;;;;;;8.05;5.95;;;-0.80;99.90;;;;;;5043946;28;20216;-71
2021/03/07 04:58:15;;;;;;;8.27;6.18;;;-0.80;99.90;;;;;;5050651;28;20281;-69
2021/03/07 05:01:01;;;;;;;8.13;5.40;;;-0.80;99.90;;;;;;5053491;28;20223;-72
2021/03/07 05:03:46;;;;;;;8.05;6.03;;;-0.80;99.90;;;;;;5046717;28;20201;-72
2021/03/07 05:06:35;;;;;;;7.63;5.68;;;-0.90;99.90;;;;;;5055797;28;20735;-71
2021/03/07 05:09:20;;;;;;;12.13;6.78;;;-1.20;99.90;;;;;;5050507;28;20205;-71
2021/03/07 05:12:06;;;;;;;7.95;5.60;;;-1.30;99.90;;;;;;5044398;28;20255;-70
2021/03/07 05:14:51;;;;;;;16.25;7.05;;;-1.40;99.90;;;;;;5047943;28;20200;-70
2021/03/07 05:17:37;;;;;;;8.10;5.90;;;-1.30;99.90;;;;;;5043148;28;20224;-71
2021/03/07 05:20:22;;;;;;;7.85;5.13;;;-1.40;99.90;;;;;;5050053;28;20225;-71
2021/03/07 05:23:07;;;;;;;9.02;6.47;;;-1.60;99.90;;;;;;5052790;28;20677;-69
2021/03/07 05:25:53;;;;;;;11.18;5.72;;;-1.70;99.90;;;;;;5041867;28;20587;-72
2021/03/07 05:28:38;;;;;;;7.93;6.57;;;-1.70;99.90;;;;;;5050642;28;20203;-71
2021/03/07 05:31:23;;;;;;;7.45;5.70;;;-1.60;99.90;;;;;;5045781;28;20236;-71
2021/03/07 05:34:09;;;;;;;9.57;6.57;;;-1.60;99.90;;;;;;5047306;28;20216;-71
2021/03/07 05:36:54;;;;;;;8.90;5.88;;;-1.50;99.90;;;;;;5048490;28;20251;-71
2021/03/07 05:39:39;;;;;;;9.45;6.10;;;-1.40;99.90;;;;;;5048615;28;20263;-72
2021/03/07 05:42:24;;;;;;;9.25;7.18;;;-1.30;99.90;;;;;;5046762;28;20655;-71
2021/03/07 05:45:10;;;;;;;7.68;5.30;;;-1.30;99.90;;;;;;5047777;28;20296;-72
2021/03/07 05:47:56;;;;;;;9.05;5.45;;;-1.40;99.90;;;;;;5046727;28;20204;-72
2021/03/07 05:50:42;;;;;;;8.63;6.00;;;-1.70;99.90;;;;;;5051240;28;20259;-72
2021/03/07 05:53:30;;;;;;;8.30;5.82;;;-1.80;99.90;;;;;;5041827;28;20204;-71
2021/03/07 05:56:15;;;;;;;8.63;6.10;;;-1.60;99.90;;;;;;5041872;28;20339;-71
2021/03/07 05:59:00;;;;;;;8.88;5.57;;;-1.50;99.90;;;;;;5048348;28;20200;-72
2021/03/07 06:01:46;;;;;;;7.53;5.45;;;-1.40;99.90;;;;;;5042255;28;20572;-71
2021/03/07 06:04:31;;;;;;;10.77;6.90;;;-1.40;99.90;;;;;;5041501;28;20792;-71
2021/03/07 06:07:17;;;;;;;6.63;5.10;;;-1.50;99.90;;;;;;5047421;28;20237;-68
2021/03/07 06:10:13;;;;;;;6.72;4.43;;;-1.70;99.90;;;;;;5044350;28;20226;-71
2021/03/07 06:13:02;;;;;;;8.82;6.50;;;-1.80;99.90;;;;;;5047704;28;20205;-71
2021/03/07 06:15:48;;;;;;;7.50;6.03;;;-1.60;99.90;;;;;;5043849;28;20252;-71
2021/03/07 06:18:40;;;;;;;7.90;5.68;;;-1.50;99.90;;;;;;5043375;28;20229;-72
2021/03/07 06:21:30;;;;;;;7.00;5.30;;;-1.30;99.90;;;;;;5041697;28;20250;-71
2021/03/07 06:24:33;;;;;;;9.50;5.93;;;-1.20;99.90;;;;;;5045039;28;20201;-69
2021/03/07 06:27:19;;;;;;;10.90;5.80;;;-1.10;99.90;;;;;;5045552;28;20242;-70
2021/03/07 06:30:08;;;;;;;8.85;6.38;;;-1.00;99.90;;;;;;5049520;28;20212;-71
2021/03/07 06:32:54;;;;;;;7.03;5.75;;;-1.00;99.90;;;;;;5052812;28;20251;-71
2021/03/07 06:35:39;;;;;;;8.07;5.22;;;-0.90;99.90;;;;;;5047985;28;20236;-71
2021/03/07 06:38:43;;;;;;;9.73;6.07;;;-1.00;99.90;;;;;;5045904;28;20204;-71
2021/03/07 06:41:30;;;;;;;9.27;6.25;;;-1.00;99.90;;;;;;5052290;28;20224;-69
2021/03/07 06:44:18;;;;;;;8.10;5.70;;;-0.90;99.90;;;;;;5046803;28;20208;-70
2021/03/07 06:47:11;;;;;;;6.82;4.97;;;-0.80;99.90;;;;;;5046836;28;20221;-71
2021/03/07 06:50:11;;;;;;;8.35;5.88;;;-0.70;99.90;;;;;;5055498;28;20213;-71
2021/03/07 06:52:58;;;;;;;9.10;6.13;;;-0.60;99.90;;;;;;5044275;28;20267;-71
2021/03/07 06:55:44;;;;;;;10.50;5.93;;;-0.50;99.90;;;;;;5042155;28;20224;-71
2021/03/07 06:58:30;;;;;;;10.32;6.40;;;-0.50;99.90;;;;;;5044702;28;20204;-71
2021/03/07 07:01:17;;;;;;;7.90;6.15;;;-0.40;99.90;;;;;;5047287;28;20220;-70
2021/03/07 07:04:02;;;;;;;8.98;5.97;;;-0.40;99.90;;;;;;5043679;28;20685;-71
2021/03/07 07:07:02;;;;;;;9.82;5.65;;;-0.40;99.90;;;;;;5041820;28;20631;-72
2021/03/07 07:09:48;;;;;;;8.73;6.05;;;-0.30;99.90;;;;;;5046244;28;20209;-70
2021/03/07 07:12:33;;;;;;;11.32;6.90;;;-0.30;99.90;;;;;;5042780;28;20231;-71
2021/03/07 07:15:20;;;;;;;9.25;6.07;;;-0.10;99.90;;;;;;5042882;28;20613;-72
2021/03/07 07:18:05;;;;;;;9.32;6.03;;;0.00;99.90;;;;;;5051091;28;20204;-71
2021/03/07 07:20:51;;;;;;;9.60;5.32;;;0.20;99.90;;;;;;5042112;28;20224;-71
2021/03/07 07:23:37;;;;;;;9.20;6.45;;;0.40;99.90;;;;;;5045357;28;20212;-72
2021/03/07 07:26:22;;;;;;;7.43;5.35;;;0.50;99.90;;;;;;5042784;28;20845;-72
2021/03/07 07:29:08;;;;;;;10.15;6.10;;;0.60;99.90;;;;;;5050033;28;20253;-72
2021/03/07 07:32:01;;;;;;;9.45;6.65;;;0.70;99.90;;;;;;5054040;28;20692;-72
2021/03/07 07:34:48;;;;;;;14.95;7.45;;;0.80;99.90;;;;;;5038807;28;20293;-70
2021/03/07 07:37:35;;;;;;;14.38;7.20;;;0.90;99.90;;;;;;5039336;28;20307;-71
2021/03/07 07:40:33;;;;;;;10.57;6.82;;;0.90;99.90;;;;;;5042814;28;20244;-72
2021/03/07 07:43:18;;;;;;;11.30;7.55;;;1.00;99.90;;;;;;5038264;28;20235;-71
2021/03/07 07:46:13;;;;;;;10.50;7.82;;;1.20;99.90;;;;;;5045891;28;20224;-72
2021/03/07 07:49:00;;;;;;;12.13;7.55;;;1.40;99.80;;;;;;5053474;28;20604;-70
2021/03/07 07:51:45;;;;;;;10.13;7.35;;;1.40;99.20;;;;;;5045215;28;20263;-71
2021/03/07 07:54:49;;;;;;;10.63;7.25;;;1.50;98.80;;;;;;5051450;28;20222;-71
2021/03/07 07:57:47;;;;;;;11.15;8.10;;;1.60;98.60;;;;;;5047359;28;20225;-71
2021/03/07 08:00:53;;;;;;;9.25;7.35;;;1.70;98.80;;;;;;5047374;28;20647;-72
2021/03/07 08:03:40;;;;;;;9.20;6.57;;;1.80;98.40;;;;;;5050369;28;20204;-71
2021/03/07 08:06:47;;;;;;;13.23;7.40;;;1.80;97.50;;;;;;5048974;28;20587;-70
2021/03/07 08:09:36;;;;;;;9.05;6.85;;;2.00;97.70;;;;;;5049987;28;20677;-71
2021/03/07 08:12:50;;;;;;;11.82;6.45;;;2.20;97.40;;;;;;5055466;28;20239;-72
2021/03/07 08:15:49;;;;;;;13.02;7.22;;;2.40;95.80;;;;;;5044747;28;20717;-72
2021/03/07 08:18:58;;;;;;;13.48;6.78;;;2.50;94.90;;;;;;5045714;28;20220;-70
2021/03/07 08:21:59;;;;;;;10.93;7.20;;;2.80;95.70;;;;;;5038491;28;20296;-71
2021/03/07 08:24:58;;;;;;;11.65;7.22;;;3.00;96.90;;;;;;5056340;28;20224;-72
2021/03/07 08:27:43;;;;;;;12.02;7.55;;;3.20;95.40;;;;;;5049266;28;20271;-71
2021/03/07 08:30:38;;;;;;;10.23;7.15;;;3.40;94.40;;;;;;5050647;28;20200;-69
2021/03/07 08:33:24;;;;;;;9.98;7.82;;;3.60;93.20;;;;;;5042205;28;20208;-72
2021/03/07 08:36:12;;;;;;;9.88;7.07;;;3.80;91.90;;;;;;5055124;28;20225;-72
2021/03/07 08:39:17;;;;;;;12.70;7.78;;;3.90;87.30;;;;;;5045675;28;20251;-72
2021/03/07 08:42:03;;;;;;;10.95;6.50;;;4.10;86.00;;;;;;5045308;28;20472;-72
2021/03/07 08:45:19;;;;;;;13.40;8.05;;;4.30;82.80;;;;;;5044480;28;20967;-72
2021/03/07 08:48:04;;;;;;;9.13;6.80;;;4.30;79.60;;;;;;5056260;28;20587;-72
2021/03/07 08:50:49;;;;;;;15.35;8.20;;;4.40;77.10;;;;;;5050019;28;20251;-71
2021/03/07 08:53:36;;;;;;;9.23;6.78;;;4.40;80.30;;;;;;5043789;28;20335;-71
2021/03/07 08:56:25;;;;;;;8.13;6.22;;;4.50;77.40;;;;;;5048165;28;20237;-71
2021/03/07 08:59:12;;;;;;;12.07;6.25;;;4.60;74.50;;;;;;5046794;28;20260;-71
2021/03/07 09:01:57;;;;;;;8.73;6.35;;;4.70;75.10;;;;;;5045626;28;20237;-70
2021/03/07 09:04:44;;;;;;;9.27;6.32;;;4.90;72.80;;;;;;5050984;28;20251;-71
2021/03/07 09:07:30;;;;;;;7.32;4.97;;;5.10;72.20;;;;;;5045287;28;20270;-71
2021/03/07 09:10:29;;;;;;;6.68;4.68;;;5.30;59.10;;;;;;5044065;28;20255;-71
2021/03/07 09:13:18;;;;;;;6.07;4.60;;;5.60;52.50;;;;;;5041759;28;20288;-71
2021/03/07 09:16:04;;;;;;;6.07;4.87;;;5.90;53.50;;;;;;5046178;28;20258;-71
2021/03/07 09:18:50;;;;;;;6.07;4.67;;;6.20;50.70;;;;;;5048317;28;20581;-71
2021/03/07 09:21:35;;;;;;;10.30;4.97;;;6.40;49.70;;;;;;5052922;28;20506;-71
2021/03/07 09:24:20;;;;;;;9.60;5.50;;;6.60;47.80;;;;;;5047180;28;20500;-70
2021/03/07 09:27:10;;;;;;;4.83;3.90;;;6.80;46.00;;;;;;5046176;28;20863;-71
2021/03/07 09:30:11;;;;;;;7.27;4.97;;;7.00;46.30;;;;;;5049951;28;20967;-71
2021/03/07 09:32:56;;;;;;;10.03;4.87;;;7.20;46.50;;;;;;5048390;28;20450;-71
2021/03/07 09:35:41;;;;;;;6.80;4.60;;;7.40;44.10;;;;;;5047471;28;20455;-72
2021/03/07 09:38:48;;;;;;;7.17;5.23;;;7.50;42.80;;;;;;5046108;28;20452;-72
2021/03/07 09:41:35;;;;;;;6.80;4.90;;;7.60;41.40;;;;;;5049365;28;20474;-71
2021/03/07 09:44:23;;;;;;;6.93;4.60;;;7.70;41.30;;;;;;5047109;28;20479;-69
2021/03/07 09:47:10;;;;;;;6.80;4.63;;;7.80;42.70;;;;;;5042892;28;20834;-68
2021/03/07 09:49:56;;;;;;;8.47;4.87;;;8.00;41.80;;;;;;5053583;28;20467;-70
2021/03/07 09:52:43;;;;;;;6.53;4.60;;;8.20;40.30;;;;;;5050082;28;20455;-69
2021/03/07 09:55:31;;;;;;;5.40;4.40;;;8.30;37.90;;;;;;5041256;28;20548;-69
2021/03/07 09:58:16;;;;;;;6.83;5.03;;;8.50;39.70;;;;;;5039630;28;20463;-70
2021/03/07 10:01:04;;;;;;;6.67;4.30;;;8.80;38.30;;;;;;5044733;28;20517;-72
2021/03/07 10:03:50;;;;;;;4.93;4.00;;;8.90;38.10;;;;;;5041493;28;20530;-70
2021/03/07 10:06:35;;;;;;;5.47;4.07;;;9.00;36.00;;;;;;5039749;28;20479;-72
2021/03/07 10:09:21;;;;;;;7.00;4.63;;;9.10;34.80;;;;;;5039746;28;20890;-70
2021/03/07 10:12:07;;;;;;;7.20;4.30;;;9.20;36.30;;;;;;5045607;28;20441;-71
2021/03/07 10:14:56;;;;;;;15.13;4.90;;;9.30;36.10;;;;;;5042183;28;20532;-72
2021/03/07 10:17:43;;;;;;;6.77;4.07;;;9.20;35.60;;;;;;5045451;28;20884;-71
2021/03/07 10:20:35;;;;;;;5.50;4.30;;;9.30;36.10;;;;;;5048672;28;20448;-69
2021/03/07 10:23:26;;;;;;;6.57;4.50;;;9.40;33.40;;;;;;5044909;28;20422;-71
2021/03/07 10:26:11;;;;;;;11.63;4.97;;;9.50;34.90;;;;;;5041592;28;21005;-71
2021/03/07 10:28:56;;;;;;;17.30;5.27;;;9.60;36.30;;;;;;5047115;28;20619;-70
2021/03/07 10:32:00;;;;;;;6.07;4.37;;;9.80;34.40;;;;;;5048416;28;20469;-72
2021/03/07 10:34:48;;;;;;;9.03;4.27;;;9.80;33.20;;;;;;5038021;28;20448;-72
2021/03/07 10:37:36;;;;;;;7.90;4.47;;;10.00;32.30;;;;;;5042314;28;20474;-72
2021/03/07 10:40:30;;;;;;;16.90;5.17;;;10.20;31.50;;;;;;5042714;28;20501;-72
2021/03/07 10:43:15;;;;;;;6.97;4.57;;;10.30;33.70;;;;;;5039522;28;21025;-71
2021/03/07 10:46:01;;;;;;;8.10;4.00;;;10.60;29.70;;;;;;5044982;28;20636;-71
2021/03/07 10:48:46;;;;;;;6.63;4.47;;;10.70;29.80;;;;;;5049528;28;21011;-71
2021/03/07 10:51:31;;;;;;;6.53;4.60;;;10.90;30.00;;;;;;5042906;28;20557;-71
2021/03/07 10:54:17;;;;;;;6.00;3.60;;;11.00;31.60;;;;;;5044534;28;20430;-69
2021/03/07 10:57:07;;;;;;;6.20;3.53;;;11.10;30.00;;;;;;5042824;28;20469;-72
2021/03/07 10:59:52;;;;;;;4.67;3.60;;;11.20;31.60;;;;;;5042757;28;20451;-71
2021/03/07 11:02:37;;;;;;;5.13;3.40;;;11.40;31.70;;;;;;5041930;28;20788;-71
2021/03/07 11:05:24;;;;;;;12.67;4.10;;;11.60;32.00;;;;;;5045009;28;20809;-71
2021/03/07 11:08:09;;;;;;;6.50;3.10;;;11.90;30.90;;;;;;5046496;28;20422;-71
2021/03/07 11:10:55;;;;;;;4.77;3.57;;;12.00;27.80;;;;;;5045816;28;20431;-71
2021/03/07 11:13:40;;;;;;;5.10;3.27;;;12.00;25.90;;;;;;5043472;28;20441;-70
2021/03/07 11:16:25;;;;;;;4.33;3.10;;;12.00;26.70;;;;;;5043638;28;20488;-71
2021/03/07 11:19:11;;;;;;;4.97;3.43;;;12.10;25.50;;;;;;5045555;28;20454;-70
2021/03/07 11:21:55;;;;;;;7.73;3.50;;;12.10;26.10;;;;;;5051751;28;21061;-70
2021/03/07 11:24:43;;;;;;;5.87;3.43;;;12.10;27.10;;;;;;5048365;28;20445;-68
2021/03/07 11:27:29;;;;;;;4.90;2.93;;;12.10;26.10;;;;;;5049240;28;20875;-70
2021/03/07 11:30:16;;;;;;;4.97;3.33;;;12.10;25.10;;;;;;5042075;28;20487;-70
2021/03/07 11:33:01;;;;;;;4.70;2.93;;;12.20;26.00;;;;;;5048501;28;20422;-71
2021/03/07 11:35:47;;;;;;;5.50;3.40;;;12.30;25.20;;;;;;5044266;28;20481;-71
2021/03/07 11:38:32;;;;;;;8.60;3.57;;;12.40;25.20;;;;;;5047534;28;20500;-70
2021/03/07 11:41:17;;;;;;;4.50;3.13;;;12.50;26.00;;;;;;5041050;28;20478;-70
2021/03/07 11:44:04;;;;;;;4.67;2.73;;;12.50;21.40;;;;;;5048913;28;20447;-71
2021/03/07 11:46:51;;;;;;;6.00;3.23;;;12.40;25.10;;;;;;5047748;28;20442;-72
2021/03/07 11:49:36;;;;;;;5.53;3.83;;;12.50;22.30;;;;;;5057550;28;20469;-72
2021/03/07 11:52:21;;;;;;;4.70;3.37;;;12.50;24.90;;;;;;5056634;28;20487;-71
2021/03/07 11:55:08;;;;;;;7.80;3.60;;;12.50;24.30;;;;;;5047821;28;20455;-72
2021/03/07 11:57:53;;;;;;;6.07;3.83;;;12.70;24.90;;;;;;5049321;28;20462;-72
2021/03/07 12:00:39;;;;;;;5.20;4.00;;;12.80;25.70;;;;;;5048736;28;20472;-72
2021/03/07 12:03:24;;;;;;;4.20;3.20;;;12.90;25.20;;;;;;5046114;28;20468;-73
2021/03/07 12:06:09;;;;;;;5.07;3.50;;;13.00;23.60;;;;;;5046897;28;20811;-72
2021/03/07 12:08:54;;;;;;;5.20;3.00;;;13.20;25.50;;;;;;5044985;28;20514;-73
2021/03/07 12:11:39;;;;;;;4.87;3.20;;;13.40;25.20;;;;;;5049429;28;20849;-74
2021/03/07 12:14:24;;;;;;;5.40;3.40;;;13.60;25.60;;;;;;5053989;28;20426;-73
2021/03/07 12:17:10;;;;;;;5.83;4.10;;;13.80;24.90;;;;;;5041554;28;20877;-74
2021/03/07 12:19:56;;;;;;;5.70;3.63;;;13.90;23.80;;;;;;5050193;28;20809;-74
2021/03/07 12:22:41;;;;;;;4.10;3.23;;;13.70;25.80;;;;;;5048783;28;20514;-74
2021/03/07 12:25:26;;;;;;;5.37;3.20;;;13.80;24.50;;;;;;5044539;28;20455;-75
2021/03/07 12:28:12;;;;;;;6.35;3.78;;;14.00;24.70;;;;;;5045869;28;20455;-73
2021/03/07 12:30:59;;;;;;;5.27;3.87;;;14.00;23.80;;;;;;5054642;28;20201;-75
2021/03/07 12:33:47;;;;;;;5.70;4.07;;;13.90;22.10;;;;;;5049190;28;20422;-72
2021/03/07 12:36:32;;;;;;;5.10;3.33;;;13.60;22.80;;;;;;5061686;28;20511;-73
2021/03/07 12:39:17;;;;;;;4.97;3.60;;;13.70;25.10;;;;;;5062885;28;20495;-73
2021/03/07 12:42:03;;;;;;;5.67;3.73;;;13.90;23.50;;;;;;5054690;28;20951;-74
2021/03/07 12:44:51;;;;;;;3.90;2.80;;;13.90;22.10;;;;;;5061914;28;20433;-72
2021/03/07 12:47:37;;;;;;;5.27;3.83;;;14.00;23.20;;;;;;5064224;28;20469;-72
2021/03/07 12:50:23;;;;;;;5.37;3.90;;;14.20;23.60;;;;;;5067310;28;20457;-74
2021/03/07 12:53:08;;;;;;;7.40;4.20;;;13.80;21.90;;;;;;5062727;28;20417;-73
2021/03/07 12:55:53;;;;;;;5.13;3.80;;;13.50;22.30;;;;;;5059681;28;20470;-73
2021/03/07 12:58:39;;;;;;;4.30;3.37;;;13.80;23.90;;;;;;5057103;28;20502;-71
2021/03/07 13:01:23;;;;;;;7.50;3.50;;;14.20;23.20;;;;;;5045843;28;20695;-73
2021/03/07 13:04:09;;;;;;;5.47;3.90;;;14.60;23.00;;;;;;5043007;28;21018;-72
2021/03/07 13:06:55;;;;;;;4.50;3.30;;;14.90;23.80;;;;;;5047591;28;20533;-71
2021/03/07 13:09:40;;;;;;;5.40;3.87;;;15.10;22.50;;;;;;5047683;28;20822;-71
2021/03/07 13:12:25;;;;;;;4.60;3.10;;;15.20;22.50;;;;;;5045933;28;20947;-71
2021/03/07 13:15:12;;;;;;;6.07;3.90;;;15.30;20.90;;;;;;5044310;28;20447;-71
2021/03/07 13:17:58;;;;;;;4.90;3.10;;;15.50;20.50;;;;;;5048496;28;20512;-74
2021/03/07 13:20:43;;;;;;;3.90;2.93;;;15.50;20.70;;;;;;5043032;28;20449;-71
2021/03/07 13:23:30;;;;;;;4.10;2.90;;;15.20;20.00;;;;;;5042607;28;20418;-72
2021/03/07 13:26:16;;;;;;;4.80;3.17;;;14.80;20.20;;;;;;5040186;28;20453;-71
2021/03/07 13:29:01;;;;;;;4.33;3.20;;;14.80;21.20;;;;;;5052966;28;20443;-72
2021/03/07 13:31:46;;;;;;;5.63;3.23;;;14.90;22.20;;;;;;5048369;28;20475;-71
2021/03/07 13:34:31;;;;;;;5.17;3.70;;;15.10;21.90;;;;;;5045652;28;21018;-71
2021/03/07 13:37:16;;;;;;;5.60;3.90;;;15.40;21.10;;;;;;5042148;28;20471;-71
2021/03/07 13:40:02;;;;;;;5.90;4.73;;;14.90;22.20;;;;;;5052745;28;20531;-71
2021/03/07 13:42:48;;;;;;;7.60;4.60;;;14.90;22.20;;;;;;5051569;28;21228;-71
2021/03/07 13:45:35;;;;;;;4.27;3.30;;;14.30;21.70;;;;;;5043842;28;20502;-71
2021/03/07 13:48:20;;;;;;;5.33;3.80;;;13.90;22.10;;;;;;5042783;28;20505;-71
2021/03/07 13:51:05;;;;;;;9.93;4.73;;;14.00;21.50;;;;;;5052060;28;20464;-72
2021/03/07 13:53:50;;;;;;;5.03;4.00;;;14.40;22.60;;;;;;5054070;28;20488;-71
2021/03/07 13:56:36;;;;;;;5.67;3.90;;;14.80;22.20;;;;;;5045416;28;20465;-72
2021/03/07 13:59:21;;;;;;;6.70;4.00;;;14.80;21.30;;;;;;5041674;28;20983;-71
2021/03/07 14:02:07;;;;;;;4.80;3.90;;;14.70;20.60;;;;;;5054941;28;20447;-71
2021/03/07 14:04:52;;;;;;;4.40;3.03;;;14.60;20.80;;;;;;5053959;28;20440;-71
2021/03/07 14:07:37;;;;;;;4.97;3.40;;;14.60;21.90;;;;;;5048331;28;20487;-71
2021/03/07 14:10:24;;;;;;;5.77;3.70;;;14.50;20.10;;;;;;5043618;28;20421;-71
2021/03/07 14:13:10;;;;;;;6.87;3.97;;;14.40;20.20;;;;;;5045231;28;20451;-71
2021/03/07 14:15:55;;;;;;;5.73;4.40;;;14.30;20.80;;;;;;5044249;28;20458;-71
2021/03/07 14:18:40;;;;;;;4.37;3.50;;;14.40;21.30;;;;;;5051927;28;21011;-71
2021/03/07 14:21:25;;;;;;;5.70;4.20;;;14.60;19.80;;;;;;5045298;28;20446;-72
2021/03/07 14:24:11;;;;;;;11.57;3.80;;;14.60;19.00;;;;;;5040874;28;21000;-72
2021/03/07 14:26:56;;;;;;;5.90;3.67;;;14.40;20.20;;;;;;5038196;28;20494;-72
2021/03/07 14:29:42;;;;;;;5.10;3.70;;;14.40;19.90;;;;;;5038843;28;21091;-71
2021/03/07 14:32:27;;;;;;;7.90;4.30;;;14.30;19.90;;;;;;5051284;28;20443;-71
2021/03/07 14:35:14;;;;;;;5.20;3.73;;;14.70;19.70;;;;;;5054951;28;20568;-72
2021/03/07 14:37:59;;;;;;;5.87;4.10;;;15.20;20.20;;;;;;5049783;28;20832;-72
2021/03/07 14:40:44;;;;;;;5.47;3.70;;;15.50;18.70;;;;;;5048511;28;20427;-72
2021/03/07 14:43:29;;;;;;;4.57;3.37;;;15.30;18.60;;;;;;5052210;28;20576;-72
2021/03/07 14:46:15;;;;;;;5.03;3.87;;;15.40;18.50;;;;;;5055706;28;20440;-72
2021/03/07 14:49:00;;;;;;;12.93;3.93;;;15.90;18.70;;;;;;5039565;28;20463;-72
2021/03/07 14:51:45;;;;;;;6.40;4.10;;;15.80;18.60;;;;;;5049090;28;20501;-73
2021/03/07 14:54:30;;;;;;;5.43;3.50;;;16.00;19.30;;;;;;5056948;28;20442;-72
2021/03/07 14:57:15;;;;;;;5.97;4.13;;;16.00;17.90;;;;;;5054060;28;20510;-72
2021/03/07 15:00:01;;;;;;;11.53;3.03;;;15.50;16.50;;;;;;5049755;28;20494;-72
2021/03/07 15:02:47;;;;;;;4.73;3.47;;;15.20;18.50;;;;;;5056835;28;21316;-72
2021/03/07 15:05:32;;;;;;;5.50;3.70;;;15.40;17.80;;;;;;5057095;28;20510;-72
2021/03/07 15:08:17;;;;;;;4.47;3.80;;;15.60;17.30;;;;;;5057303;28;20449;-72